KADW/ADW METAR and TAF weather

Enter ICAO airport designator
Station Type Date Time Source
KADW METAR 2021/04/17 02:56 UTC NOAA

KADW 170256Z AUTO 31007KT 10SM CLR 10/01 A2982 RMK AO2 SLP105 T00960005 50014 $


Station Type Date Time Source
KADW Decoded METAR 2021/04/17 02:56 UTC NOAA

Camp Springs / Andrews Air Force Base, MD, United States (KADW) 38-49N 076-51W 88M
Apr 16, 2021 - 10:56 PM EDT / 2021.04.17 0256 UTC
Wind: from the NW (310 degrees) at 8 MPH (7 KT):0
Visibility: 10 mile(s):0
Sky conditions: clear
Temperature: 49.3 F (9.6 C)
Dew Point: 32.9 F (0.5 C)
Relative Humidity: 53%
Pressure (altimeter): 29.82 in. Hg (1009 hPa)
Pressure tendency: 0.04 inches (1.4 hPa) higher than three hours ago
ob: KADW 170256Z AUTO 31007KT 10SM CLR 10/01 A2982 RMK AO2 SLP105 T00960005 50014
cycle: 3

Station Type Date Time Source
KADW TAF 2021/04/17 02:49 UTC NOAA

TAF
AMD KADW 170240Z 1702/1807 31010KT 9999 BKN040 620459 510009 QNH2976INS
BECMG 1722/1723 31009KT 9999 BKN045 620459 QNH2986INS TX15/1720Z TN06/1710Z

Example: see airport list